createdAt,value
2017-10-07T00:02:09.559Z,13.10
2017-10-07T00:04:37.183Z,13.12
2017-10-07T00:07:04.838Z,13.10
2017-10-07T00:09:32.504Z,13.11
2017-10-07T00:12:00.123Z,13.09
2017-10-07T00:14:27.852Z,13.09
2017-10-07T00:16:55.481Z,13.08
2017-10-07T00:19:23.099Z,13.12
2017-10-07T00:21:50.823Z,13.12
2017-10-07T00:24:18.491Z,13.14
2017-10-07T00:26:46.108Z,13.15
2017-10-07T00:29:13.825Z,13.19
2017-10-07T00:31:41.499Z,13.20
2017-10-07T00:34:09.200Z,13.26
2017-10-07T00:36:36.942Z,13.25
2017-10-07T00:39:04.647Z,13.22
2017-10-07T00:41:32.314Z,13.25
2017-10-07T00:43:59.966Z,13.29
2017-10-07T00:46:27.587Z,13.35
2017-10-07T00:48:55.197Z,13.40
2017-10-07T00:51:22.859Z,13.40
2017-10-07T00:53:50.466Z,13.42
2017-10-07T00:56:18.086Z,13.43
2017-10-07T00:58:45.820Z,13.46
2017-10-07T01:01:13.447Z,13.47
2017-10-07T01:03:41.114Z,13.46
2017-10-07T01:06:08.836Z,13.46
2017-10-07T01:08:36.503Z,13.44
2017-10-07T01:11:04.103Z,13.44
2017-10-07T01:13:31.787Z,13.45
2017-10-07T01:15:59.439Z,13.47
2017-10-07T01:18:27.045Z,13.44
2017-10-07T01:20:54.783Z,13.41
2017-10-07T01:23:22.447Z,13.47
2017-10-07T01:25:50.067Z,13.46
2017-10-07T01:28:17.967Z,13.45
2017-10-07T01:30:45.571Z,13.49
2017-10-07T01:33:13.247Z,13.49
2017-10-07T01:35:40.919Z,13.52
2017-10-07T01:38:08.595Z,13.52
2017-10-07T01:40:36.211Z,13.52
2017-10-07T01:43:03.878Z,13.45
2017-10-07T01:45:31.559Z,13.41
2017-10-07T01:47:59.154Z,13.38
2017-10-07T01:50:26.859Z,13.27
2017-10-07T01:52:54.470Z,13.21
2017-10-07T01:55:22.092Z,13.13
2017-10-07T01:57:49.751Z,13.10
2017-10-07T02:00:17.425Z,13.10
2017-10-07T02:02:45.035Z,13.05
2017-10-07T02:05:12.748Z,13.03
2017-10-07T02:07:40.359Z,12.99
2017-10-07T02:10:07.985Z,12.99
2017-10-07T02:12:35.684Z,13.05
2017-10-07T02:15:03.343Z,13.07
2017-10-07T02:17:31.012Z,13.05
2017-10-07T02:19:58.679Z,12.99
2017-10-07T02:22:26.285Z,12.97
2017-10-07T02:24:53.947Z,12.92
2017-10-07T02:27:21.599Z,12.93
2017-10-07T02:29:49.207Z,12.87
2017-10-07T02:32:16.811Z,12.83
2017-10-07T02:34:44.455Z,12.83
2017-10-07T02:37:12.120Z,12.85
2017-10-07T02:39:39.792Z,12.85
2017-10-07T02:42:07.492Z,12.84
2017-10-07T02:44:35.104Z,12.78
2017-10-07T02:47:02.714Z,12.72
2017-10-07T02:49:30.372Z,12.72
2017-10-07T02:51:58.050Z,12.69
2017-10-07T02:54:25.735Z,12.69
2017-10-07T02:56:53.422Z,12.63
2017-10-07T02:59:21.028Z,12.68
2017-10-07T03:01:48.632Z,12.69
2017-10-07T03:04:16.299Z,12.70
2017-10-07T03:06:43.914Z,12.72
2017-10-07T03:09:11.528Z,12.70
2017-10-07T03:11:39.176Z,12.66
2017-10-07T03:14:06.847Z,12.69
2017-10-07T03:16:34.516Z,12.66
2017-10-07T03:19:02.263Z,12.64
2017-10-07T03:21:29.863Z,12.64
2017-10-07T03:23:57.483Z,12.63
2017-10-07T03:26:25.182Z,12.60
2017-10-07T03:28:52.792Z,12.61
2017-10-07T03:31:20.390Z,12.65
2017-10-07T03:33:48.137Z,12.66
2017-10-07T03:36:15.742Z,12.65
2017-10-07T03:38:43.423Z,12.62
2017-10-07T03:41:11.127Z,12.60
2017-10-07T03:43:38.795Z,12.59
2017-10-07T03:46:06.459Z,12.55
2017-10-07T03:48:34.135Z,12.54
2017-10-07T03:51:01.747Z,12.58
2017-10-07T03:53:29.404Z,12.51
2017-10-07T03:55:57.107Z,12.45
2017-10-07T03:58:24.715Z,12.46
2017-10-07T04:00:52.319Z,12.41
2017-10-07T04:03:20.057Z,12.40
2017-10-07T04:05:47.668Z,12.41
2017-10-07T04:08:15.335Z,12.44
2017-10-07T04:10:43.050Z,12.42
2017-10-07T04:13:10.652Z,12.42
2017-10-07T04:15:38.255Z,12.46
2017-10-07T04:18:05.967Z,12.48
2017-10-07T04:20:33.634Z,12.52
2017-10-07T04:23:01.247Z,12.52
2017-10-07T04:25:28.959Z,12.55
2017-10-07T04:27:56.570Z,12.57
2017-10-07T04:30:24.179Z,12.59
2017-10-07T04:32:51.896Z,12.58
2017-10-07T04:35:19.580Z,12.47
2017-10-07T04:37:47.251Z,12.43
2017-10-07T04:40:14.907Z,12.42
2017-10-07T04:42:42.517Z,12.39
2017-10-07T04:45:10.127Z,12.39
2017-10-07T04:47:37.847Z,12.35
2017-10-07T04:50:05.459Z,12.37
2017-10-07T04:52:33.062Z,12.38
2017-10-07T04:55:00.714Z,12.32
2017-10-07T04:57:28.332Z,12.32
2017-10-07T04:59:55.999Z,12.29
2017-10-07T05:02:23.713Z,12.25
2017-10-07T05:04:51.323Z,12.20
2017-10-07T05:07:19.048Z,12.17
2017-10-07T05:09:46.791Z,12.12
2017-10-07T05:12:14.403Z,12.11
2017-10-07T05:14:42.073Z,12.08
2017-10-07T05:17:09.796Z,12.02
2017-10-07T05:19:37.409Z,12.00
2017-10-07T05:22:05.083Z,11.99
2017-10-07T05:24:32.745Z,11.97
2017-10-07T05:27:00.464Z,11.90
2017-10-07T05:29:28.062Z,11.83
2017-10-07T05:31:55.712Z,11.83
2017-10-07T05:34:23.307Z,11.85
2017-10-07T05:36:50.913Z,11.87
2017-10-07T05:39:18.636Z,11.81
2017-10-07T05:41:46.244Z,11.83
2017-10-07T05:44:13.843Z,11.87
2017-10-07T05:46:41.499Z,11.86
2017-10-07T05:49:09.112Z,11.83
2017-10-07T05:51:36.775Z,11.85
2017-10-07T05:54:04.426Z,11.84
2017-10-07T05:56:32.029Z,11.81
2017-10-07T05:58:59.687Z,11.72
2017-10-07T06:01:27.496Z,11.70
2017-10-07T06:03:55.232Z,11.69
2017-10-07T06:06:22.869Z,11.72
2017-10-07T06:08:50.634Z,11.64
2017-10-07T06:11:19.198Z,11.65
2017-10-07T06:13:46.947Z,11.65
2017-10-07T06:16:14.692Z,11.66
2017-10-07T06:18:42.391Z,11.66
2017-10-07T06:21:10.047Z,11.60
2017-10-07T06:23:37.832Z,11.58
2017-10-07T06:26:05.516Z,11.60
2017-10-07T06:28:33.156Z,11.55
2017-10-07T06:31:00.876Z,11.58
2017-10-07T06:33:28.588Z,11.55
2017-10-07T06:35:56.187Z,11.53
2017-10-07T06:38:23.924Z,11.51
2017-10-07T06:40:51.546Z,11.52
2017-10-07T06:43:19.259Z,11.50
2017-10-07T06:45:46.999Z,11.51
2017-10-07T06:48:14.613Z,11.56
2017-10-07T06:50:42.300Z,11.56
2017-10-07T06:53:09.954Z,11.57
2017-10-07T06:55:37.639Z,11.53
2017-10-07T06:58:05.314Z,11.53
2017-10-07T07:00:33.023Z,11.54
2017-10-07T07:03:00.724Z,11.51
2017-10-07T07:05:28.368Z,11.46
2017-10-07T07:07:56.031Z,11.50
2017-10-07T07:10:23.657Z,11.50
2017-10-07T07:12:51.267Z,11.48
2017-10-07T07:15:19.012Z,11.51
2017-10-07T07:17:46.626Z,11.49
2017-10-07T07:20:14.259Z,11.52
2017-10-07T07:22:41.922Z,11.56
2017-10-07T07:25:09.530Z,11.64
2017-10-07T07:27:37.216Z,11.68
2017-10-07T07:30:04.975Z,11.69
2017-10-07T07:32:32.652Z,11.70
2017-10-07T07:35:00.286Z,11.64
2017-10-07T07:37:28.036Z,11.53
2017-10-07T07:39:55.647Z,11.49
2017-10-07T07:42:23.244Z,11.37
2017-10-07T07:44:50.912Z,11.32
2017-10-07T07:47:18.576Z,11.32
2017-10-07T07:49:46.204Z,11.23
2017-10-07T07:52:13.937Z,11.17
2017-10-07T07:54:41.583Z,11.16
2017-10-07T07:57:09.251Z,11.17
2017-10-07T07:59:36.920Z,11.21
2017-10-07T08:02:04.530Z,11.21
2017-10-07T08:04:32.136Z,11.16
2017-10-07T08:06:59.853Z,11.13
2017-10-07T08:09:27.479Z,11.16
2017-10-07T08:11:55.104Z,11.12
2017-10-07T08:14:22.750Z,11.14
2017-10-07T08:16:50.420Z,11.11
2017-10-07T08:19:18.036Z,11.15
2017-10-07T08:21:45.691Z,11.14
2017-10-07T08:24:13.358Z,11.23
2017-10-07T08:26:40.978Z,11.25
2017-10-07T08:29:08.699Z,11.25
2017-10-07T08:31:36.363Z,11.34
2017-10-07T08:34:04.024Z,11.31
2017-10-07T08:36:31.784Z,11.29
2017-10-07T08:38:59.447Z,11.38
2017-10-07T08:41:27.064Z,11.43
2017-10-07T08:43:54.787Z,11.40
2017-10-07T08:46:22.387Z,11.45
2017-10-07T08:48:50.067Z,11.42
2017-10-07T08:51:17.710Z,11.38
2017-10-07T08:53:45.390Z,11.43
2017-10-07T08:56:13.051Z,11.49
2017-10-07T08:58:40.776Z,11.48
2017-10-07T09:01:08.452Z,11.46
2017-10-07T09:03:36.124Z,11.47
2017-10-07T09:06:03.853Z,11.47
2017-10-07T09:08:31.576Z,11.50
2017-10-07T09:10:59.187Z,11.45
2017-10-07T09:13:26.836Z,11.49
2017-10-07T09:15:54.450Z,11.49
2017-10-07T09:18:22.066Z,11.47
2017-10-07T09:20:49.722Z,11.46
2017-10-07T09:23:17.334Z,11.48
2017-10-07T09:25:44.944Z,11.52
2017-10-07T09:28:12.622Z,11.48
2017-10-07T09:30:40.241Z,11.52
2017-10-07T09:33:07.905Z,11.52
2017-10-07T09:35:35.625Z,11.46
2017-10-07T09:38:03.349Z,11.43
2017-10-07T09:40:30.959Z,11.50
2017-10-07T09:42:58.619Z,11.53
2017-10-07T09:45:26.288Z,11.54
2017-10-07T09:47:53.894Z,11.52
2017-10-07T09:50:21.540Z,11.54
2017-10-07T09:52:49.141Z,11.55
2017-10-07T09:55:16.739Z,11.56
2017-10-07T09:57:44.454Z,11.56
2017-10-07T10:00:12.062Z,11.58
2017-10-07T10:02:39.720Z,11.67
2017-10-07T10:05:07.432Z,11.68
2017-10-07T10:07:35.055Z,11.67
2017-10-07T10:10:02.723Z,11.66
2017-10-07T10:12:30.441Z,11.58
2017-10-07T10:14:58.048Z,11.56
2017-10-07T10:17:25.714Z,11.58
2017-10-07T10:19:53.448Z,11.55
2017-10-07T10:22:21.055Z,11.60
2017-10-07T10:24:48.727Z,11.50
2017-10-07T10:27:16.427Z,11.48
2017-10-07T10:29:44.025Z,11.55
2017-10-07T10:32:11.632Z,11.57
2017-10-07T10:34:39.344Z,11.53
2017-10-07T10:37:06.955Z,11.53
2017-10-07T10:39:34.642Z,11.49
2017-10-07T10:42:02.308Z,11.50
2017-10-07T10:44:29.967Z,11.58
2017-10-07T10:46:57.628Z,11.50
2017-10-07T10:49:25.283Z,11.43
2017-10-07T10:51:52.947Z,11.43
2017-10-07T10:54:20.613Z,11.47
2017-10-07T10:56:48.295Z,11.52
2017-10-07T10:59:15.914Z,11.56
2017-10-07T11:01:43.579Z,11.52
2017-10-07T11:04:11.255Z,11.59
2017-10-07T11:06:38.920Z,11.64
2017-10-07T11:09:06.595Z,11.63
2017-10-07T11:11:34.307Z,11.63
2017-10-07T11:14:01.976Z,11.69
2017-10-07T11:16:29.585Z,11.57
2017-10-07T11:18:57.306Z,11.66
2017-10-07T11:21:24.915Z,11.74
2017-10-07T11:23:52.518Z,11.69
2017-10-07T11:26:20.162Z,11.61
2017-10-07T11:28:47.771Z,11.45
2017-10-07T11:31:15.375Z,11.37
2017-10-07T11:33:43.032Z,11.31
2017-10-07T11:36:10.639Z,11.25
2017-10-07T11:38:38.252Z,11.18
2017-10-07T11:41:05.930Z,11.19
2017-10-07T11:43:33.591Z,11.10
2017-10-07T11:46:01.193Z,11.15
2017-10-07T11:48:28.855Z,11.19
2017-10-07T11:50:56.472Z,11.20
2017-10-07T11:53:24.084Z,11.23
2017-10-07T11:55:51.747Z,11.18
2017-10-07T11:58:19.351Z,11.22
2017-10-07T12:00:46.958Z,11.20
2017-10-07T12:03:14.636Z,11.13
2017-10-07T12:05:42.341Z,11.09
2017-10-07T12:08:12.743Z,11.11
2017-10-07T12:10:37.712Z,11.03
2017-10-07T12:13:05.384Z,10.97
2017-10-07T12:15:33.003Z,11.04
2017-10-07T12:18:00.968Z,11.03
2017-10-07T12:20:28.571Z,11.08
2017-10-07T12:22:56.249Z,11.10
2017-10-07T12:25:23.907Z,11.15
2017-10-07T12:27:51.575Z,11.20
2017-10-07T12:30:19.186Z,11.09
2017-10-07T12:32:46.852Z,11.13
2017-10-07T12:35:14.463Z,11.09
2017-10-07T12:37:42.088Z,11.00
2017-10-07T12:40:09.796Z,11.04
2017-10-07T12:42:37.407Z,11.10
2017-10-07T12:45:05.077Z,11.14
2017-10-07T12:47:32.778Z,11.21
2017-10-07T12:50:00.459Z,11.26
2017-10-07T12:52:28.120Z,11.23
2017-10-07T12:54:55.831Z,11.31
2017-10-07T12:57:23.451Z,11.31
2017-10-07T12:59:51.055Z,11.29
2017-10-07T13:02:18.710Z,11.21
2017-10-07T13:04:46.376Z,11.13
2017-10-07T13:07:13.987Z,11.10
2017-10-07T13:09:41.643Z,11.10
2017-10-07T13:12:09.304Z,11.01
2017-10-07T13:14:37.019Z,10.98
2017-10-07T13:17:04.723Z,11.02
2017-10-07T13:19:32.330Z,10.96
2017-10-07T13:21:59.954Z,10.96
2017-10-07T13:24:27.683Z,10.94
2017-10-07T13:26:55.295Z,10.87
2017-10-07T13:29:22.916Z,10.88
2017-10-07T13:31:50.595Z,10.86
2017-10-07T13:34:18.275Z,10.90
2017-10-07T13:36:45.965Z,10.90
2017-10-07T13:39:13.631Z,10.93
2017-10-07T13:41:41.266Z,10.91
2017-10-07T13:44:08.939Z,10.90
2017-10-07T13:46:36.660Z,10.92
2017-10-07T13:49:04.283Z,10.95
2017-10-07T13:51:31.899Z,10.97
2017-10-07T13:53:59.563Z,10.93
2017-10-07T13:56:27.184Z,10.86
2017-10-07T13:58:54.872Z,10.88
2017-10-07T14:01:22.559Z,10.88
2017-10-07T14:03:50.187Z,10.86
2017-10-07T14:06:17.795Z,10.87
2017-10-07T14:08:45.476Z,10.80
2017-10-07T14:11:13.148Z,10.77
2017-10-07T14:13:40.788Z,10.66
2017-10-07T14:16:08.459Z,10.61
2017-10-07T14:18:36.073Z,10.59
2017-10-07T14:21:03.686Z,10.53
2017-10-07T14:23:31.396Z,10.51
2017-10-07T14:25:59.012Z,10.50
2017-10-07T14:28:26.636Z,10.46
2017-10-07T14:30:54.375Z,10.46
2017-10-07T14:33:21.999Z,10.46
2017-10-07T14:35:49.615Z,10.49
2017-10-07T14:38:17.329Z,10.55
2017-10-07T14:40:44.938Z,10.54
2017-10-07T14:43:12.547Z,10.54
2017-10-07T14:45:40.200Z,10.53
2017-10-07T14:48:07.806Z,10.51
2017-10-07T14:50:35.431Z,10.46
2017-10-07T14:53:03.177Z,10.44
2017-10-07T14:55:30.847Z,10.40
2017-10-07T14:57:58.463Z,10.39
2017-10-07T15:00:26.132Z,10.36
2017-10-07T15:02:53.807Z,10.36
2017-10-07T15:05:21.426Z,10.39
2017-10-07T15:07:49.152Z,10.42
2017-10-07T15:10:16.879Z,10.40
2017-10-07T15:12:44.610Z,10.43
2017-10-07T15:15:12.335Z,10.41
2017-10-07T15:17:40.020Z,10.45
2017-10-07T15:20:07.642Z,10.44
2017-10-07T15:22:35.319Z,10.33
2017-10-07T15:25:02.991Z,10.33
2017-10-07T15:27:30.621Z,10.29
2017-10-07T15:29:58.352Z,10.27
2017-10-07T15:32:25.965Z,10.31
2017-10-07T15:34:53.574Z,10.32
2017-10-07T15:37:21.292Z,10.28
2017-10-07T15:39:48.955Z,10.27
2017-10-07T15:42:16.631Z,10.27
2017-10-07T15:44:44.283Z,10.29
2017-10-07T15:47:11.896Z,10.34
2017-10-07T15:49:39.507Z,10.36
2017-10-07T15:52:07.172Z,10.35
2017-10-07T15:54:34.793Z,10.38
2017-10-07T15:57:02.406Z,10.40
2017-10-07T15:59:30.075Z,10.39
2017-10-07T16:01:57.695Z,10.31
2017-10-07T16:04:25.299Z,10.29
2017-10-07T16:06:52.956Z,10.29
2017-10-07T16:09:20.567Z,10.33
2017-10-07T16:11:48.179Z,10.34
2017-10-07T16:14:15.885Z,10.37
2017-10-07T16:16:43.556Z,10.35
2017-10-07T16:19:11.168Z,10.37
2017-10-07T16:21:38.887Z,10.41
2017-10-07T16:24:06.565Z,10.38
2017-10-07T16:26:34.188Z,10.38
2017-10-07T16:29:01.897Z,10.37
2017-10-07T16:31:29.584Z,10.31
2017-10-07T16:33:57.208Z,10.27
2017-10-07T16:36:24.869Z,10.31
2017-10-07T16:38:52.501Z,10.26
2017-10-07T16:41:20.116Z,10.29
2017-10-07T16:43:47.855Z,10.30
2017-10-07T16:46:15.581Z,10.35
2017-10-07T16:48:43.307Z,10.36
2017-10-07T16:51:11.007Z,10.36
2017-10-07T16:53:38.626Z,10.30
2017-10-07T16:56:06.238Z,10.33
2017-10-07T16:58:33.912Z,10.27
2017-10-07T17:01:01.645Z,10.31
2017-10-07T17:03:29.250Z,10.30
2017-10-07T17:05:56.904Z,10.29
2017-10-07T17:08:24.507Z,10.32
2017-10-07T17:10:52.126Z,10.26
2017-10-07T17:13:19.787Z,10.22
2017-10-07T17:15:47.522Z,10.15
2017-10-07T17:18:15.130Z,10.16
2017-10-07T17:20:42.799Z,10.12
2017-10-07T17:23:10.417Z,10.12
2017-10-07T17:25:38.043Z,10.15
2017-10-07T17:28:05.698Z,10.15
2017-10-07T17:30:33.379Z,10.13
2017-10-07T17:33:01.053Z,10.09
2017-10-07T17:35:28.797Z,10.07
2017-10-07T17:37:56.412Z,10.08
2017-10-07T17:40:24.015Z,10.08
2017-10-07T17:42:51.775Z,10.13
2017-10-07T17:45:19.447Z,10.16
2017-10-07T17:47:47.115Z,10.17
2017-10-07T17:50:14.844Z,10.16
2017-10-07T17:52:42.499Z,10.16
2017-10-07T17:55:10.102Z,10.11
2017-10-07T17:57:37.808Z,10.12
2017-10-07T18:00:05.483Z,10.11
2017-10-07T18:02:33.292Z,10.05
2017-10-07T18:05:00.964Z,10.06
2017-10-07T18:07:28.636Z,10.01
2017-10-07T18:09:56.316Z,9.98
2017-10-07T18:12:25.161Z,9.95
2017-10-07T18:14:52.834Z,9.94
2017-10-07T18:17:20.508Z,9.91
2017-10-07T18:19:48.188Z,9.90
2017-10-07T18:22:15.875Z,9.86
2017-10-07T18:24:43.490Z,9.85
2017-10-07T18:27:11.272Z,9.87
2017-10-07T18:29:38.932Z,9.89
2017-10-07T18:32:06.594Z,9.94
2017-10-07T18:34:34.263Z,9.91
2017-10-07T18:37:01.876Z,9.95
2017-10-07T18:39:29.535Z,9.94
2017-10-07T18:41:57.179Z,9.93
2017-10-07T18:44:24.787Z,9.90
2017-10-07T18:46:52.395Z,9.90
2017-10-07T18:49:20.113Z,9.85
2017-10-07T18:51:47.752Z,9.83
2017-10-07T18:54:15.343Z,9.76
2017-10-07T18:56:43.056Z,9.75
2017-10-07T18:59:10.756Z,9.78
2017-10-07T19:01:38.380Z,9.81
2017-10-07T19:04:06.174Z,9.81
2017-10-07T19:06:33.884Z,9.77
2017-10-07T19:09:01.499Z,9.74
2017-10-07T19:11:29.204Z,9.79
2017-10-07T19:13:56.802Z,9.78
2017-10-07T19:16:24.479Z,9.73
2017-10-07T19:18:52.144Z,9.72
2017-10-07T19:21:19.819Z,9.71
2017-10-07T19:23:47.476Z,9.69
2017-10-07T19:26:15.120Z,9.63
2017-10-07T19:28:42.784Z,9.60
2017-10-07T19:31:10.451Z,9.58
2017-10-07T19:33:38.162Z,9.55
2017-10-07T19:36:05.818Z,9.57
2017-10-07T19:38:33.472Z,9.58
2017-10-07T19:41:01.244Z,9.62
2017-10-07T19:43:28.847Z,9.65
2017-10-07T19:45:56.514Z,9.65
2017-10-07T19:48:24.199Z,9.63
2017-10-07T19:50:51.806Z,9.65
2017-10-07T19:53:19.403Z,9.67
2017-10-07T19:55:47.056Z,9.65
2017-10-07T19:58:14.659Z,9.65
2017-10-07T20:00:42.272Z,9.65
2017-10-07T20:03:09.931Z,9.63
2017-10-07T20:05:37.530Z,9.57
2017-10-07T20:08:05.123Z,9.57
2017-10-07T20:10:32.833Z,9.59
2017-10-07T20:13:00.548Z,9.61
2017-10-07T20:15:28.159Z,9.57
2017-10-07T20:17:55.900Z,9.63
2017-10-07T20:20:24.435Z,9.63
2017-10-07T20:22:52.087Z,9.67
2017-10-07T20:25:19.728Z,9.66
2017-10-07T20:27:47.328Z,9.76
2017-10-07T20:30:14.923Z,9.75
2017-10-07T20:32:42.576Z,9.69
2017-10-07T20:35:10.184Z,9.71
2017-10-07T20:37:37.856Z,9.71
2017-10-07T20:40:05.572Z,9.73
2017-10-07T20:42:33.228Z,9.70
2017-10-07T20:45:00.839Z,9.63
2017-10-07T20:47:28.490Z,9.56
2017-10-07T20:49:56.084Z,9.55
2017-10-07T20:52:23.688Z,9.53
2017-10-07T20:54:51.335Z,9.51
2017-10-07T20:57:18.934Z,9.42
2017-10-07T20:59:46.596Z,9.42
2017-10-07T21:02:14.321Z,9.46
2017-10-07T21:04:41.941Z,9.48
2017-10-07T21:07:09.548Z,9.53
2017-10-07T21:09:37.200Z,9.53
2017-10-07T21:12:04.863Z,9.58
2017-10-07T21:14:32.478Z,9.57
2017-10-07T21:17:00.184Z,9.55
2017-10-07T21:19:27.903Z,9.49
2017-10-07T21:21:55.510Z,9.46
2017-10-07T21:24:23.266Z,9.50
2017-10-07T21:26:50.915Z,9.50
2017-10-07T21:29:18.588Z,9.53
2017-10-07T21:31:46.284Z,9.59
2017-10-07T21:34:13.951Z,9.58
2017-10-07T21:36:41.664Z,9.58
2017-10-07T21:39:09.388Z,9.57
2017-10-07T21:41:37.043Z,9.59
2017-10-07T21:44:04.747Z,9.53
2017-10-07T21:46:32.440Z,9.55
2017-10-07T21:49:00.047Z,9.46
2017-10-07T21:51:27.651Z,9.47
2017-10-07T21:53:55.287Z,9.48
2017-10-07T21:56:22.886Z,9.47
2017-10-07T21:58:50.479Z,9.42
2017-10-07T22:01:18.128Z,9.43
2017-10-07T22:03:45.734Z,9.39
2017-10-07T22:06:13.339Z,9.39
2017-10-07T22:08:40.983Z,9.35
2017-10-07T22:11:08.571Z,9.38
2017-10-07T22:13:36.223Z,9.39
2017-10-07T22:16:03.924Z,9.40
2017-10-07T22:18:31.592Z,9.41
2017-10-07T22:20:59.239Z,9.41
2017-10-07T22:23:26.899Z,9.37
2017-10-07T22:25:54.490Z,9.37
2017-10-07T22:28:22.149Z,9.34
2017-10-07T22:30:49.844Z,9.31
2017-10-07T22:33:17.445Z,9.33
2017-10-07T22:35:45.040Z,9.31
2017-10-07T22:38:12.692Z,9.25
2017-10-07T22:40:40.295Z,9.20
2017-10-07T22:43:07.903Z,9.18
2017-10-07T22:45:35.547Z,9.18
2017-10-07T22:48:03.142Z,9.13
2017-10-07T22:50:30.741Z,9.11
2017-10-07T22:52:58.399Z,9.05
2017-10-07T22:55:26.012Z,9.03
2017-10-07T22:57:53.627Z,9.02
2017-10-07T23:00:21.268Z,9.08
2017-10-07T23:02:48.862Z,9.10
2017-10-07T23:05:16.515Z,9.07
2017-10-07T23:07:44.169Z,9.01
2017-10-07T23:10:11.762Z,9.02
2017-10-07T23:12:39.356Z,9.02
2017-10-07T23:15:07.024Z,9.01
2017-10-07T23:17:34.678Z,9.06
2017-10-07T23:20:02.295Z,9.06
2017-10-07T23:22:33.880Z,9.14
2017-10-07T23:25:01.486Z,9.07
2017-10-07T23:27:29.081Z,9.03
2017-10-07T23:29:56.743Z,8.94
2017-10-07T23:32:24.343Z,8.91
2017-10-07T23:34:52.009Z,8.87
2017-10-07T23:37:19.726Z,8.83
2017-10-07T23:39:47.329Z,8.81
2017-10-07T23:42:14.995Z,8.75
2017-10-07T23:44:42.694Z,8.72
2017-10-07T23:47:10.299Z,8.69
2017-10-07T23:49:37.906Z,8.68
2017-10-07T23:52:05.563Z,8.59
2017-10-07T23:54:33.219Z,8.62
2017-10-07T23:57:00.815Z,8.64
2017-10-07T23:59:28.454Z,8.54
